Time;durP1;ratioP1;P1;durP2;ratioP2;P2;SDS_P1;SDS_P2;PMS_P1;PMS_P2;Temp;Humidity;BMP_temperature;BMP_pressure;BME280_temperature;BME280_humidity;BME280_pressure;Samples;Min_cycle;Max_cycle;Signal;HPM_P1;HPM_P2
2022/11/24 00:02:11;;;;;;;24.70;6.47;;;8.50;99.90;;;;;;5064012;28;20057;-75
2022/11/24 00:04:37;;;;;;;29.02;7.57;;;8.60;99.90;;;;;;5066268;28;20024;-75
2022/11/24 00:07:03;;;;;;;28.60;7.13;;;8.60;99.90;;;;;;5060718;28;20109;-76
2022/11/24 00:09:29;;;;;;;23.90;6.45;;;8.60;99.90;;;;;;5061902;28;20061;-75
2022/11/24 00:11:55;;;;;;;19.88;7.18;;;8.60;99.90;;;;;;5070200;28;20074;-75
2022/11/24 00:14:20;;;;;;;29.17;6.22;;;8.50;99.90;;;;;;5067856;28;20029;-75
2022/11/24 00:16:46;;;;;;;23.10;5.93;;;8.40;99.90;;;;;;5067001;28;20034;-75
2022/11/24 00:19:12;;;;;;;25.52;6.35;;;8.30;99.90;;;;;;5068652;28;20035;-75
2022/11/24 00:21:38;;;;;;;17.65;5.97;;;8.30;99.90;;;;;;5070108;28;20035;-76
2022/11/24 00:24:04;;;;;;;24.30;5.38;;;8.20;99.90;;;;;;5066840;28;20447;-76
2022/11/24 00:26:33;;;;;;;21.55;6.05;;;8.20;99.90;;;;;;5081655;28;20021;-76
2022/11/24 00:29:01;;;;;;;28.40;6.85;;;8.20;99.90;;;;;;5064164;28;20029;-76
2022/11/24 00:31:32;;;;;;;20.17;5.55;;;8.10;99.90;;;;;;5070854;28;20036;-76
2022/11/24 00:34:02;;;;;;;20.45;6.05;;;8.00;99.90;;;;;;5072831;28;20032;-76
2022/11/24 00:36:31;;;;;;;24.60;7.28;;;8.00;99.90;;;;;;5071907;28;20036;-76
2022/11/24 00:39:03;;;;;;;22.58;5.65;;;7.90;99.90;;;;;;5064430;28;20052;-76
2022/11/24 00:41:30;;;;;;;24.83;6.65;;;7.80;99.90;;;;;;5071235;28;20032;-76
2022/11/24 00:43:56;;;;;;;28.25;6.47;;;7.80;99.90;;;;;;5062203;28;20060;-75
2022/11/24 00:46:23;;;;;;;24.85;5.97;;;7.70;99.90;;;;;;5068153;28;20609;-76
2022/11/24 00:48:50;;;;;;;24.55;7.07;;;7.70;99.90;;;;;;5072800;28;20032;-76
2022/11/24 00:51:17;;;;;;;21.85;5.88;;;7.60;99.90;;;;;;5069628;28;20103;-76
2022/11/24 00:53:44;;;;;;;22.50;6.57;;;7.60;99.90;;;;;;5071438;28;20439;-76
2022/11/24 00:56:11;;;;;;;20.17;5.72;;;7.60;99.90;;;;;;5067787;28;20023;-76
2022/11/24 00:58:38;;;;;;;19.23;5.72;;;7.60;99.90;;;;;;5070231;28;20029;-76
2022/11/24 01:01:09;;;;;;;27.20;6.22;;;7.60;99.90;;;;;;5075807;28;20111;-76
2022/11/24 01:03:35;;;;;;;26.58;7.43;;;7.60;99.90;;;;;;5067395;28;20044;-76
2022/11/24 01:06:09;;;;;;;29.00;6.10;;;7.60;99.90;;;;;;5074601;28;20373;-76
2022/11/24 01:08:39;;;;;;;23.95;6.63;;;7.50;99.90;;;;;;5068835;28;20032;-77
2022/11/24 01:11:20;;;;;;;23.42;7.00;;;7.40;99.90;;;;;;5078580;28;20116;-76
2022/11/24 01:13:50;;;;;;;17.55;5.88;;;7.40;99.90;;;;;;5062669;28;20064;-77
2022/11/24 01:16:21;;;;;;;26.58;7.07;;;7.30;99.90;;;;;;5078262;28;20065;-77
2022/11/24 01:18:47;;;;;;;20.27;5.72;;;7.20;99.90;;;;;;5065067;28;20120;-76
2022/11/24 01:21:16;;;;;;;19.38;5.75;;;7.20;99.90;;;;;;5071800;28;20468;-77
2022/11/24 01:23:41;;;;;;;28.90;6.55;;;7.20;99.90;;;;;;5064168;28;20028;-77
2022/11/24 01:26:09;;;;;;;23.08;6.18;;;7.20;99.90;;;;;;5076294;28;20550;-76
2022/11/24 01:28:36;;;;;;;21.08;6.15;;;7.10;99.90;;;;;;5071766;28;20050;-76
2022/11/24 01:31:04;;;;;;;19.55;5.95;;;7.10;99.90;;;;;;5077616;28;20086;-77
2022/11/24 01:33:30;;;;;;;25.45;6.43;;;7.10;99.90;;;;;;5070830;28;20055;-76
2022/11/24 01:35:57;;;;;;;19.50;6.60;;;7.10;99.90;;;;;;5073698;28;20024;-76
2022/11/24 01:38:24;;;;;;;19.20;6.13;;;7.10;99.90;;;;;;5072517;28;20021;-76
2022/11/24 01:40:59;;;;;;;30.30;7.40;;;7.10;99.90;;;;;;5075071;28;20511;-76
2022/11/24 01:43:25;;;;;;;26.02;6.93;;;7.00;99.90;;;;;;5068522;28;20058;-77
2022/11/24 01:45:51;;;;;;;27.75;6.53;;;7.00;99.90;;;;;;5074931;28;20017;-76
2022/11/24 01:48:26;;;;;;;17.95;6.28;;;7.00;99.90;;;;;;5069268;28;20029;-76
2022/11/24 01:51:09;;;;;;;18.15;6.53;;;6.90;99.90;;;;;;5068494;28;20031;-76
2022/11/24 01:53:35;;;;;;;25.45;7.28;;;6.90;99.90;;;;;;5069735;28;20075;-76
2022/11/24 01:56:03;;;;;;;17.20;6.20;;;6.90;99.90;;;;;;5073744;28;20497;-76
2022/11/24 01:58:32;;;;;;;28.98;7.90;;;6.90;99.90;;;;;;5062082;28;20052;-76
2022/11/24 02:00:58;;;;;;;25.42;6.57;;;6.80;99.90;;;;;;5070220;28;20532;-76
2022/11/24 02:03:33;;;;;;;17.17;5.70;;;6.80;99.90;;;;;;5075148;28;20025;-76
2022/11/24 02:06:04;;;;;;;19.45;6.10;;;6.80;99.90;;;;;;5073082;28;20024;-76
2022/11/24 02:08:34;;;;;;;27.40;6.57;;;6.70;99.90;;;;;;5071178;28;20029;-76
2022/11/24 02:11:03;;;;;;;14.82;5.18;;;6.80;99.90;;;;;;5072440;28;20025;-76
2022/11/24 02:13:29;;;;;;;25.95;8.85;;;6.80;99.90;;;;;;5069514;28;20024;-76
2022/11/24 02:15:55;;;;;;;14.85;5.72;;;6.80;99.90;;;;;;5075830;28;20096;-76
2022/11/24 02:18:21;;;;;;;17.17;6.43;;;6.80;99.90;;;;;;5067316;28;20082;-76
2022/11/24 02:20:47;;;;;;;23.27;7.13;;;6.90;99.90;;;;;;5073323;28;20020;-77
2022/11/24 02:23:32;;;;;;;17.48;6.07;;;6.90;99.90;;;;;;5064709;28;20036;-77
2022/11/24 02:26:09;;;;;;;24.55;6.30;;;7.00;99.90;;;;;;5072712;28;20040;-77
2022/11/24 02:28:35;;;;;;;16.70;5.35;;;7.10;99.90;;;;;;5073173;28;20370;-77
2022/11/24 02:31:01;;;;;;;18.48;6.40;;;7.20;99.90;;;;;;5069931;28;20020;-77
2022/11/24 02:33:28;;;;;;;17.05;6.03;;;7.40;99.90;;;;;;5075127;28;20107;-76
2022/11/24 02:35:54;;;;;;;14.05;5.35;;;7.50;99.90;;;;;;5065835;28;20037;-77
2022/11/24 02:38:29;;;;;;;19.13;6.80;;;7.60;99.90;;;;;;5074410;28;20020;-76
2022/11/24 02:40:55;;;;;;;17.63;5.80;;;7.60;99.90;;;;;;5062680;28;20024;-76
2022/11/24 02:43:22;;;;;;;18.48;5.40;;;7.60;99.90;;;;;;5072718;28;20016;-76
2022/11/24 02:45:48;;;;;;;13.82;5.15;;;7.60;99.90;;;;;;5065091;28;20052;-76
2022/11/24 02:48:15;;;;;;;16.27;4.90;;;7.60;99.90;;;;;;5064563;28;20021;-76
2022/11/24 02:50:40;;;;;;;12.75;5.65;;;7.50;99.90;;;;;;5064201;28;20049;-78
2022/11/24 02:53:07;;;;;;;13.02;6.03;;;7.50;99.90;;;;;;5062069;28;20025;-76
2022/11/24 02:55:32;;;;;;;15.85;5.43;;;7.40;99.90;;;;;;5074977;28;20503;-76
2022/11/24 02:57:58;;;;;;;16.02;5.18;;;7.20;99.90;;;;;;5059317;28;20067;-76
2022/11/24 03:00:24;;;;;;;15.73;5.63;;;7.20;99.90;;;;;;5070738;28;20033;-76
2022/11/24 03:02:50;;;;;;;16.67;4.82;;;7.10;99.90;;;;;;5071357;28;20020;-76
2022/11/24 03:05:16;;;;;;;18.00;4.53;;;7.00;99.90;;;;;;5068697;28;20056;-76
2022/11/24 03:07:42;;;;;;;13.80;5.40;;;7.00;99.90;;;;;;5075755;28;20029;-77
2022/11/24 03:10:08;;;;;;;12.95;5.25;;;6.90;99.90;;;;;;5066462;28;20024;-76
2022/11/24 03:12:34;;;;;;;14.35;6.00;;;6.90;99.90;;;;;;5074297;28;20025;-76
2022/11/24 03:15:02;;;;;;;13.15;5.00;;;6.80;99.90;;;;;;5064005;28;20043;-76
2022/11/24 03:17:28;;;;;;;11.95;4.57;;;6.70;99.90;;;;;;5083400;28;20025;-76
2022/11/24 03:19:54;;;;;;;19.77;6.07;;;6.70;99.90;;;;;;5067091;28;20025;-76
2022/11/24 03:22:20;;;;;;;11.30;5.28;;;6.60;99.90;;;;;;5070694;28;20408;-76
2022/11/24 03:24:45;;;;;;;13.55;6.50;;;6.60;99.90;;;;;;5071817;28;20044;-76
2022/11/24 03:27:11;;;;;;;13.48;5.45;;;6.50;99.90;;;;;;5075718;28;20518;-76
2022/11/24 03:29:37;;;;;;;13.77;5.18;;;6.50;99.90;;;;;;5070924;28;20500;-75
2022/11/24 03:32:03;;;;;;;11.85;5.63;;;6.50;99.90;;;;;;5067963;28;20020;-75
2022/11/24 03:34:29;;;;;;;13.40;5.88;;;6.50;99.90;;;;;;5066905;28;20118;-75
2022/11/24 03:36:55;;;;;;;22.02;5.72;;;6.40;99.90;;;;;;5074001;28;20048;-75
2022/11/24 03:39:21;;;;;;;17.05;5.25;;;6.40;99.90;;;;;;5067608;28;20025;-75
2022/11/24 03:41:47;;;;;;;23.65;5.93;;;6.40;99.90;;;;;;5065164;28;20374;-76
2022/11/24 03:44:12;;;;;;;11.38;6.00;;;6.30;99.90;;;;;;5067087;28;20029;-75
2022/11/24 03:46:38;;;;;;;15.95;6.30;;;6.40;99.90;;;;;;5062705;28;20615;-75
2022/11/24 03:49:04;;;;;;;14.75;5.68;;;6.30;99.90;;;;;;5066244;28;20033;-75
2022/11/24 03:51:30;;;;;;;20.67;6.25;;;6.40;99.90;;;;;;5062841;28;20025;-75
2022/11/24 03:53:56;;;;;;;11.82;5.57;;;6.30;99.90;;;;;;5067765;28;20107;-75
2022/11/24 03:56:21;;;;;;;14.23;5.93;;;6.40;99.90;;;;;;5070705;28;20021;-75
2022/11/24 03:58:47;;;;;;;21.10;5.20;;;6.40;99.90;;;;;;5064675;28;20032;-75
2022/11/24 04:01:13;;;;;;;15.95;5.10;;;6.60;99.90;;;;;;5071604;28;20079;-75
2022/11/24 04:03:39;;;;;;;10.48;5.35;;;6.60;99.90;;;;;;5065943;28;20556;-76
2022/11/24 04:06:04;;;;;;;23.70;5.53;;;6.70;99.90;;;;;;5070499;28;20082;-75
2022/11/24 04:08:30;;;;;;;19.67;6.88;;;6.80;99.90;;;;;;5073568;28;20025;-76
2022/11/24 04:10:56;;;;;;;13.60;5.03;;;7.00;99.90;;;;;;5063417;28;20028;-75
2022/11/24 04:13:24;;;;;;;17.23;4.72;;;7.30;99.90;;;;;;5072038;28;20138;-78
2022/11/24 04:15:50;;;;;;;11.13;5.05;;;7.40;99.90;;;;;;5059773;28;20052;-75
2022/11/24 04:18:15;;;;;;;14.38;5.15;;;7.40;99.90;;;;;;5069921;28;20020;-75
2022/11/24 04:20:42;;;;;;;22.02;6.35;;;7.40;99.90;;;;;;5067531;28;20048;-75
2022/11/24 04:23:09;;;;;;;9.95;4.18;;;7.50;99.90;;;;;;5068035;28;20028;-75
2022/11/24 04:25:35;;;;;;;12.77;4.50;;;7.50;99.90;;;;;;5071266;28;20041;-76
2022/11/24 04:28:01;;;;;;;33.97;6.78;;;7.50;99.90;;;;;;5066216;28;20055;-76
2022/11/24 04:30:28;;;;;;;12.88;4.82;;;7.50;99.90;;;;;;5066833;28;20028;-76
2022/11/24 04:32:54;;;;;;;14.15;4.93;;;7.50;99.90;;;;;;5065619;28;20039;-76
2022/11/24 04:35:20;;;;;;;20.05;5.18;;;7.50;99.90;;;;;;5065403;28;20025;-76
2022/11/24 04:37:46;;;;;;;11.38;4.53;;;7.40;99.90;;;;;;5073837;28;20024;-76
2022/11/24 04:40:13;;;;;;;11.13;4.72;;;7.40;99.90;;;;;;5064068;28;20021;-76
2022/11/24 04:42:39;;;;;;;15.38;5.78;;;7.20;99.90;;;;;;5069944;28;20035;-76
2022/11/24 04:45:06;;;;;;;8.90;4.32;;;7.10;99.90;;;;;;5063161;28;20033;-76
2022/11/24 04:47:32;;;;;;;12.30;4.80;;;7.00;99.90;;;;;;5068680;28;20178;-76
2022/11/24 04:49:58;;;;;;;14.10;4.50;;;6.90;99.90;;;;;;5058609;28;20037;-76
2022/11/24 04:52:24;;;;;;;14.30;5.65;;;6.80;99.90;;;;;;5069645;28;20459;-76
2022/11/24 04:54:51;;;;;;;12.48;5.75;;;6.70;99.90;;;;;;5064827;28;20897;-76
2022/11/24 04:57:22;;;;;;;12.15;5.30;;;6.60;99.90;;;;;;5062895;28;20017;-76
2022/11/24 04:59:49;;;;;;;13.95;5.35;;;6.50;99.90;;;;;;5067068;28;20020;-76
2022/11/24 05:02:15;;;;;;;18.27;6.82;;;6.40;99.90;;;;;;5060444;28;20033;-76
2022/11/24 05:04:41;;;;;;;23.77;6.47;;;6.20;99.90;;;;;;5061270;28;20021;-75
2022/11/24 05:07:09;;;;;;;16.73;6.03;;;6.20;99.90;;;;;;5069024;28;20480;-76
2022/11/24 05:10:33;;;;;;;9.93;4.25;;;6.00;99.90;;;;;;5067281;28;20096;-76
2022/11/24 05:12:21;;;;;;;14.95;5.05;;;6.00;99.90;;;;;;5070250;28;20476;-76
2022/11/24 05:14:46;;;;;;;14.15;4.35;;;5.90;99.90;;;;;;5067272;28;20438;-76
2022/11/24 05:17:12;;;;;;;17.58;5.15;;;5.90;99.90;;;;;;5069237;28;20026;-76
2022/11/24 05:19:38;;;;;;;15.05;6.15;;;5.90;99.90;;;;;;5066623;28;20032;-76
2022/11/24 05:22:04;;;;;;;7.93;4.57;;;5.90;99.90;;;;;;5070084;28;20048;-75
2022/11/24 05:24:29;;;;;;;14.40;5.30;;;5.90;99.90;;;;;;5070303;28;20048;-75
2022/11/24 05:26:55;;;;;;;12.45;6.35;;;5.80;99.90;;;;;;5072491;28;20027;-76
2022/11/24 05:29:21;;;;;;;21.75;6.45;;;5.80;99.90;;;;;;5070365;28;20024;-76
2022/11/24 05:31:47;;;;;;;12.93;6.28;;;5.70;99.90;;;;;;5071123;28;20018;-76
2022/11/24 05:34:13;;;;;;;12.15;6.40;;;5.60;99.90;;;;;;5065126;28;20097;-75
2022/11/24 05:36:55;;;;;;;12.18;5.80;;;5.60;99.90;;;;;;5071278;28;20104;-75
2022/11/24 05:39:21;;;;;;;12.77;4.18;;;5.60;99.90;;;;;;5071994;28;20029;-76
2022/11/24 05:41:46;;;;;;;8.68;4.32;;;5.60;99.90;;;;;;5067748;28;20020;-76
2022/11/24 05:44:12;;;;;;;11.52;4.28;;;5.60;99.90;;;;;;5070818;28;20032;-76
2022/11/24 05:46:38;;;;;;;10.80;4.65;;;5.60;99.90;;;;;;5065556;28;20029;-76
2022/11/24 05:49:04;;;;;;;20.65;5.57;;;5.60;99.90;;;;;;5067828;28;20508;-75
2022/11/24 05:51:30;;;;;;;15.30;6.45;;;5.60;99.90;;;;;;5065826;28;20040;-75
2022/11/24 05:53:56;;;;;;;13.85;6.90;;;5.70;99.90;;;;;;5067977;28;20051;-76
2022/11/24 05:56:21;;;;;;;20.58;6.78;;;5.60;99.90;;;;;;5071939;28;20021;-76
2022/11/24 05:58:47;;;;;;;11.40;5.50;;;5.60;99.90;;;;;;5066801;28;20021;-76
2022/11/24 06:01:13;;;;;;;10.48;6.00;;;5.60;99.90;;;;;;5069572;28;20021;-76
2022/11/24 06:03:39;;;;;;;14.07;5.03;;;5.50;99.90;;;;;;5067686;28;20051;-76
2022/11/24 06:06:05;;;;;;;11.70;4.90;;;5.50;99.90;;;;;;5073310;28;20468;-75
2022/11/24 06:08:31;;;;;;;13.98;4.70;;;5.40;99.90;;;;;;5075641;28;20021;-75
2022/11/24 06:11:16;;;;;;;10.00;5.03;;;5.40;99.90;;;;;;5066627;28;20047;-75
2022/11/24 06:13:47;;;;;;;13.90;3.83;;;5.40;99.90;;;;;;5072433;28;20024;-76
2022/11/24 06:16:13;;;;;;;9.45;3.72;;;5.40;99.90;;;;;;5070214;28;20108;-76
2022/11/24 06:18:39;;;;;;;15.98;4.88;;;5.40;99.90;;;;;;5067245;28;20444;-75
2022/11/24 06:21:06;;;;;;;12.73;4.88;;;5.40;99.90;;;;;;5071783;28;20017;-75
2022/11/24 06:23:32;;;;;;;15.25;4.13;;;5.30;99.90;;;;;;5069134;28;20029;-75
2022/11/24 06:25:59;;;;;;;13.15;5.47;;;5.30;99.90;;;;;;5071242;28;20040;-76
2022/11/24 06:28:26;;;;;;;10.07;4.63;;;5.20;99.90;;;;;;5066778;28;20060;-75
2022/11/24 06:30:52;;;;;;;11.73;4.68;;;5.30;99.90;;;;;;5072176;28;20020;-76
2022/11/24 06:33:18;;;;;;;16.48;4.90;;;5.20;99.90;;;;;;5063352;28;20070;-75
2022/11/24 06:35:44;;;;;;;17.42;5.80;;;5.20;99.90;;;;;;5068846;28;20025;-75
2022/11/24 06:38:10;;;;;;;11.75;5.47;;;5.20;99.90;;;;;;5072629;28;20024;-75
2022/11/24 06:40:35;;;;;;;13.48;4.85;;;5.20;99.90;;;;;;5063201;28;20048;-76
2022/11/24 06:43:01;;;;;;;10.68;4.57;;;5.20;99.90;;;;;;5071461;28;20100;-75
2022/11/24 06:45:27;;;;;;;15.52;5.88;;;5.10;99.90;;;;;;5061395;28;20024;-75
2022/11/24 06:47:54;;;;;;;14.82;5.40;;;5.10;99.90;;;;;;5071352;28;20029;-76
2022/11/24 06:50:21;;;;;;;11.50;5.35;;;5.10;99.90;;;;;;5060325;28;20028;-75
2022/11/24 06:52:46;;;;;;;15.75;6.32;;;5.10;99.90;;;;;;5071452;28;20033;-75
2022/11/24 06:55:13;;;;;;;19.60;5.85;;;5.10;99.90;;;;;;5068676;28;20028;-75
2022/11/24 06:57:39;;;;;;;21.60;5.40;;;5.10;99.90;;;;;;5063882;28;20477;-75
2022/11/24 07:00:06;;;;;;;13.20;5.85;;;5.20;99.90;;;;;;5070268;28;20025;-75
2022/11/24 07:02:32;;;;;;;13.63;6.18;;;5.20;99.90;;;;;;5059755;28;20552;-75
2022/11/24 07:04:58;;;;;;;13.05;5.63;;;5.20;99.90;;;;;;5067956;28;20032;-75
2022/11/24 07:07:24;;;;;;;14.25;4.93;;;5.10;99.90;;;;;;5074945;28;20028;-75
2022/11/24 07:09:50;;;;;;;14.32;5.80;;;5.20;99.90;;;;;;5066643;28;20033;-75
2022/11/24 07:12:16;;;;;;;13.18;4.90;;;5.10;99.90;;;;;;5069539;28;20493;-75
2022/11/24 07:14:41;;;;;;;17.45;6.22;;;5.10;99.90;;;;;;5069968;28;20068;-75
2022/11/24 07:17:07;;;;;;;16.13;6.53;;;5.10;99.90;;;;;;5070726;28;20017;-75
2022/11/24 07:19:33;;;;;;;20.60;6.50;;;5.20;99.90;;;;;;5068759;28;20025;-75
2022/11/24 07:21:59;;;;;;;14.85;6.05;;;5.10;99.90;;;;;;5070977;28;20567;-75
2022/11/24 07:24:25;;;;;;;21.73;5.95;;;5.20;99.90;;;;;;5067356;28;20516;-75
2022/11/24 07:26:50;;;;;;;15.23;7.05;;;5.30;99.90;;;;;;5071435;28;20051;-76
2022/11/24 07:29:16;;;;;;;15.25;6.57;;;5.30;99.90;;;;;;5063825;28;20036;-75
2022/11/24 07:31:42;;;;;;;15.15;6.82;;;5.40;99.90;;;;;;5070161;28;20389;-76
2022/11/24 07:34:08;;;;;;;14.77;6.47;;;5.50;99.90;;;;;;5062611;28;20029;-77
2022/11/24 07:36:34;;;;;;;13.82;7.13;;;5.50;99.90;;;;;;5069643;28;20503;-77
2022/11/24 07:38:59;;;;;;;11.38;6.70;;;5.60;99.90;;;;;;5070050;28;20029;-77
2022/11/24 07:41:25;;;;;;;11.15;5.97;;;5.60;99.90;;;;;;5064859;28;20020;-76
2022/11/24 07:43:51;;;;;;;17.38;5.78;;;5.70;99.90;;;;;;5069654;28;20052;-77
2022/11/24 07:46:18;;;;;;;24.45;6.70;;;5.80;99.90;;;;;;5060837;28;20113;-77
2022/11/24 07:48:44;;;;;;;18.15;7.00;;;5.90;99.90;;;;;;5069218;28;20512;-78
2022/11/24 07:51:11;;;;;;;209.40;128.57;;;6.00;99.90;;;;;;5062149;28;20071;-77
2022/11/24 07:53:37;;;;;;;79.80;59.05;;;6.10;99.90;;;;;;5063025;28;20029;-77
2022/11/24 07:56:04;;;;;;;16.85;9.85;;;6.10;99.90;;;;;;5058764;28;20083;-77
2022/11/24 07:58:34;;;;;;;531.72;379.23;;;6.10;99.90;;;;;;5072708;28;20100;-77
2022/11/24 08:01:10;;;;;;;216.30;143.03;;;6.10;99.90;;;;;;5066501;28;20568;-77
2022/11/24 08:03:36;;;;;;;364.85;237.80;;;6.10;99.90;;;;;;5068872;28;20059;-77
2022/11/24 08:06:02;;;;;;;152.65;95.18;;;6.10;99.90;;;;;;5071432;28;20032;-77
2022/11/24 08:08:32;;;;;;;49.83;33.70;;;6.10;99.90;;;;;;5065285;28;20058;-77
2022/11/24 08:11:02;;;;;;;54.42;29.98;;;6.10;99.90;;;;;;5062826;28;20032;-77
2022/11/24 08:13:28;;;;;;;16.15;10.60;;;6.10;99.90;;;;;;5059798;28;20028;-78
2022/11/24 08:15:53;;;;;;;24.17;15.13;;;6.00;99.90;;;;;;5057665;28;20029;-77
2022/11/24 08:18:21;;;;;;;23.80;15.73;;;6.00;99.90;;;;;;5058643;28;20025;-77
2022/11/24 08:20:46;;;;;;;26.40;12.27;;;6.10;99.90;;;;;;5072400;28;20016;-77
2022/11/24 08:23:12;;;;;;;18.17;9.98;;;6.20;99.90;;;;;;5071544;28;20032;-78
2022/11/24 08:25:38;;;;;;;24.67;10.30;;;6.30;99.90;;;;;;5057797;28;20090;-77
2022/11/24 08:28:04;;;;;;;34.53;22.55;;;6.40;99.90;;;;;;5065126;28;20084;-77
2022/11/24 08:30:30;;;;;;;18.30;9.68;;;6.60;99.90;;;;;;5061832;28;20108;-78
2022/11/24 08:32:59;;;;;;;22.17;9.88;;;6.70;99.90;;;;;;5057163;28;20029;-77
2022/11/24 08:35:26;;;;;;;20.33;11.15;;;6.80;99.90;;;;;;5064474;28;20073;-77
2022/11/24 08:37:52;;;;;;;19.65;9.57;;;6.90;99.90;;;;;;5071086;28;20389;-78
2022/11/24 08:40:17;;;;;;;25.60;12.40;;;7.00;99.90;;;;;;5061832;28;20025;-77
2022/11/24 08:42:43;;;;;;;18.27;11.55;;;7.10;99.90;;;;;;5070793;28;20040;-77
2022/11/24 08:45:09;;;;;;;18.10;7.82;;;7.20;99.90;;;;;;5063708;28;20033;-77
2022/11/24 08:47:35;;;;;;;22.67;9.27;;;7.30;99.90;;;;;;5058087;28;20010;-77
2022/11/24 08:50:01;;;;;;;25.02;9.77;;;7.40;99.90;;;;;;5063437;28;20484;-77
2022/11/24 08:52:27;;;;;;;46.05;26.17;;;7.50;99.90;;;;;;5057109;28;20434;-77
2022/11/24 08:54:53;;;;;;;23.75;9.82;;;7.60;99.90;;;;;;5069897;28;20033;-78
2022/11/24 08:57:18;;;;;;;23.85;12.18;;;7.70;99.90;;;;;;5074766;28;20021;-78
2022/11/24 08:59:45;;;;;;;195.27;89.05;;;7.70;99.90;;;;;;5062136;28;20048;-77
2022/11/24 09:02:14;;;;;;;22.67;9.80;;;7.80;99.90;;;;;;5071252;28;20038;-77
2022/11/24 09:04:39;;;;;;;47.75;17.63;;;7.90;99.90;;;;;;5066456;28;20088;-77
2022/11/24 09:07:05;;;;;;;17.90;8.27;;;7.90;99.90;;;;;;5076623;28;20683;-77
2022/11/24 09:09:31;;;;;;;20.30;8.90;;;8.00;99.90;;;;;;5066302;28;20020;-77
2022/11/24 09:11:57;;;;;;;18.27;8.07;;;8.10;99.90;;;;;;5078680;28;20024;-77
2022/11/24 09:14:23;;;;;;;24.35;8.20;;;8.20;99.90;;;;;;5069667;28;20040;-78
2022/11/24 09:16:48;;;;;;;19.77;8.00;;;8.30;99.90;;;;;;5070274;28;20044;-78
2022/11/24 09:19:14;;;;;;;16.80;7.75;;;8.40;99.90;;;;;;5066847;28;20477;-78
2022/11/24 09:21:40;;;;;;;19.17;7.72;;;8.50;99.90;;;;;;5076507;28;20020;-78
2022/11/24 09:24:06;;;;;;;21.33;7.35;;;8.60;99.90;;;;;;5060309;28;20394;-78
2022/11/24 09:26:35;;;;;;;18.63;6.75;;;8.60;99.90;;;;;;5073845;28;20835;-78
2022/11/24 09:29:03;;;;;;;16.83;7.85;;;8.70;99.90;;;;;;5066324;28;20044;-78
2022/11/24 09:31:33;;;;;;;14.35;6.00;;;8.80;99.90;;;;;;5073393;28;20032;-78
2022/11/24 09:33:59;;;;;;;13.67;6.03;;;8.80;99.90;;;;;;5061027;28;20025;-78
2022/11/24 09:36:25;;;;;;;15.60;6.80;;;8.90;99.90;;;;;;5075494;28;20260;-78
2022/11/24 09:38:52;;;;;;;11.65;6.20;;;8.80;99.90;;;;;;5074024;28;20028;-78
2022/11/24 09:41:39;;;;;;;13.95;6.35;;;8.80;99.90;;;;;;5066156;28;20052;-78
2022/11/24 09:44:14;;;;;;;14.68;6.90;;;8.90;99.90;;;;;;5059925;28;20087;-78
2022/11/24 09:47:01;;;;;;;25.55;10.38;;;9.00;99.90;;;;;;5077255;28;20039;-78
2022/11/24 09:49:35;;;;;;;19.05;10.13;;;9.10;99.90;;;;;;5061391;28;20037;-78
2022/11/24 09:52:07;;;;;;;18.40;5.57;;;9.30;99.90;;;;;;5070081;28;20036;-78
2022/11/24 09:54:36;;;;;;;64.57;39.65;;;9.30;99.90;;;;;;5071010;28;20036;-78
2022/11/24 09:57:04;;;;;;;18.08;5.70;;;9.40;99.90;;;;;;5067421;28;20431;-78
2022/11/24 09:59:30;;;;;;;14.68;6.05;;;9.50;99.90;;;;;;5067240;28;20029;-78
2022/11/24 10:01:56;;;;;;;18.73;7.60;;;9.70;99.90;;;;;;5069099;28;20028;-78
2022/11/24 10:04:25;;;;;;;16.42;5.05;;;9.70;99.90;;;;;;5063446;28;20071;-78
2022/11/24 10:07:03;;;;;;;15.20;6.30;;;9.90;99.90;;;;;;5062836;28;20025;-78
2022/11/24 10:09:40;;;;;;;13.82;8.40;;;10.00;99.90;;;;;;5064902;28;20118;-78
2022/11/24 10:12:28;;;;;;;13.85;4.95;;;10.10;99.90;;;;;;5073030;28;20517;-80
2022/11/24 10:15:03;;;;;;;8.88;5.13;;;10.20;99.90;;;;;;5064438;28;20041;-78
2022/11/24 10:17:48;;;;;;;14.95;5.32;;;10.20;99.90;;;;;;5061181;28;20025;-78
2022/11/24 10:20:29;;;;;;;33.67;20.45;;;10.30;99.90;;;;;;5067510;28;20028;-78
2022/11/24 10:23:01;;;;;;;18.17;12.43;;;10.40;99.90;;;;;;5078262;28;20074;-79
2022/11/24 10:25:44;;;;;;;23.75;5.55;;;10.50;99.90;;;;;;5066106;28;20104;-79
2022/11/24 10:28:14;;;;;;;13.27;4.05;;;10.50;99.90;;;;;;5071718;28;20040;-79
2022/11/24 10:30:40;;;;;;;21.52;11.68;;;10.60;99.90;;;;;;5067719;28;20020;-79
2022/11/24 10:33:15;;;;;;;8.68;4.70;;;10.70;99.90;;;;;;5069673;28;20125;-83
2022/11/24 10:36:04;;;;;;;7.43;3.95;;;10.80;99.90;;;;;;5070762;28;20025;-80
2022/11/24 10:38:50;;;;;;;19.88;5.13;;;10.70;99.90;;;;;;5067828;28;20720;-80
2022/11/24 10:41:27;;;;;;;18.23;6.20;;;10.60;99.90;;;;;;5063107;28;20119;-80
2022/11/24 10:43:56;;;;;;;22.55;8.90;;;10.50;99.90;;;;;;5067646;28;20375;-81
2022/11/24 10:46:26;;;;;;;29.75;16.75;;;10.40;99.90;;;;;;5063652;28;20500;-78
2022/11/24 10:49:03;;;;;;;37.00;18.52;;;10.40;99.90;;;;;;5058870;28;20485;-77
2022/11/24 10:51:29;;;;;;;10.95;5.20;;;10.40;99.90;;;;;;5066025;28;20032;-77
2022/11/24 10:54:04;;;;;;;13.18;5.50;;;10.30;99.90;;;;;;5066954;28;20020;-78
2022/11/24 10:56:41;;;;;;;16.70;4.97;;;10.30;99.90;;;;;;5069403;28;20024;-79
2022/11/24 10:59:26;;;;;;;16.10;5.22;;;10.40;99.90;;;;;;5069518;28;20154;-79
2022/11/24 11:01:52;;;;;;;16.92;5.70;;;10.40;99.90;;;;;;5060451;28;20048;-79
2022/11/24 11:04:45;;;;;;;24.42;7.20;;;10.60;99.90;;;;;;5068365;28;20070;-79
2022/11/24 11:07:24;;;;;;;31.83;16.17;;;10.70;99.90;;;;;;5064453;28;20127;-78
2022/11/24 11:10:10;;;;;;;28.38;11.52;;;10.90;99.90;;;;;;5068595;28;20035;-79
2022/11/24 11:12:36;;;;;;;13.18;4.35;;;11.00;99.90;;;;;;5088876;28;20055;-79
2022/11/24 11:15:26;;;;;;;7.45;3.42;;;11.20;99.90;;;;;;5063346;28;20021;-80
2022/11/24 11:17:56;;;;;;;11.55;4.50;;;11.30;99.90;;;;;;5086167;28;20070;-79
2022/11/24 11:20:30;;;;;;;;;;;11.40;99.90;;;;;;5062872;28;20036;-79
2022/11/24 11:22:59;;;;;;;24.83;13.10;;;11.40;99.90;;;;;;5058840;28;19908;-78
2022/11/24 11:25:37;;;;;;;17.08;4.65;;;11.40;99.90;;;;;;5065104;28;20048;-78
2022/11/24 11:28:24;;;;;;;14.63;5.00;;;11.40;99.90;;;;;;5075168;28;20063;-79
2022/11/24 11:30:59;;;;;;;12.85;4.28;;;11.40;99.90;;;;;;5068642;28;20036;-79
2022/11/24 11:33:28;;;;;;;22.48;9.18;;;11.40;99.90;;;;;;5069790;28;20609;-79
2022/11/24 11:35:55;;;;;;;20.67;6.57;;;11.30;99.90;;;;;;5068761;28;20016;-79
2022/11/24 11:38:22;;;;;;;14.52;4.13;;;11.20;99.90;;;;;;5072013;28;20038;-79
2022/11/24 11:40:51;;;;;;;77.20;41.50;;;11.20;99.90;;;;;;5064335;28;20191;-79
2022/11/24 11:43:35;;;;;;;30.67;15.23;;;11.10;99.90;;;;;;5070109;28;20115;-79
2022/11/24 11:46:16;;;;;;;20.77;12.38;;;11.00;99.90;;;;;;5067259;28;20514;-79
2022/11/24 11:48:46;;;;;;;16.92;6.63;;;11.00;99.90;;;;;;5072916;28;20121;-79
2022/11/24 11:51:28;;;;;;;12.65;8.05;;;11.00;99.90;;;;;;5075564;28;20050;-80
2022/11/24 11:54:17;;;;;;;12.13;6.97;;;11.00;99.90;;;;;;5069752;28;20032;-79
2022/11/24 11:56:44;;;;;;;11.05;5.15;;;11.10;99.90;;;;;;5072878;28;20023;-79
2022/11/24 11:59:20;;;;;;;10.32;3.97;;;11.10;99.90;;;;;;5068979;28;20036;-80
2022/11/24 12:01:58;;;;;;;9.32;4.15;;;11.20;99.90;;;;;;5070296;28;20020;-79
2022/11/24 12:04:52;;;;;;;27.70;13.93;;;11.20;99.90;;;;;;5061491;28;20422;-80
2022/11/24 12:07:44;;;;;;;16.58;9.60;;;11.30;99.90;;;;;;5073806;28;20833;-79
2022/11/24 12:10:33;;;;;;;13.25;4.85;;;11.30;99.90;;;;;;5068229;28;20074;-78
2022/11/24 12:13:02;;;;;;;15.90;4.35;;;11.30;99.90;;;;;;5060779;28;20385;-78
2022/11/24 12:15:51;;;;;;;9.90;4.07;;;11.30;99.90;;;;;;5058093;28;20025;-79
2022/11/24 12:18:55;;;;;;;15.90;3.92;;;11.30;99.90;;;;;;5067139;28;20013;-80
2022/11/24 12:21:27;;;;;;;13.75;6.30;;;11.30;99.90;;;;;;5057656;28;20060;-79
2022/11/24 12:24:18;;;;;;;17.08;6.50;;;11.30;99.90;;;;;;5065056;28;20090;-79
2022/11/24 12:26:49;;;;;;;9.70;5.05;;;11.40;99.90;;;;;;5069108;28;20035;-78
2022/11/24 12:29:47;;;;;;;15.05;4.18;;;11.40;99.90;;;;;;5061106;28;20016;-78
2022/11/24 12:32:21;;;;;;;9.23;5.25;;;11.40;99.90;;;;;;5076129;28;20025;-78
2022/11/24 12:35:02;;;;;;;11.77;4.68;;;11.50;99.90;;;;;;5064985;28;20091;-78
2022/11/24 12:37:37;;;;;;;10.25;4.38;;;11.50;99.90;;;;;;5070005;28;20024;-78
2022/11/24 12:40:28;;;;;;;17.30;9.38;;;11.50;99.90;;;;;;5072961;28;20107;-75
2022/11/24 12:43:23;;;;;;;15.20;7.28;;;11.60;99.90;;;;;;5075476;28;20036;-75
2022/11/24 12:45:48;;;;;;;30.13;16.92;;;11.70;99.90;;;;;;5054207;28;20751;-75
2022/11/24 12:48:34;;;;;;;12.68;4.38;;;11.80;99.90;;;;;;5059870;28;20061;-75
2022/11/24 12:51:02;;;;;;;13.68;4.80;;;11.90;99.90;;;;;;5070444;28;20027;-75
2022/11/24 12:53:32;;;;;;;21.23;4.28;;;12.00;99.90;;;;;;5062453;28;20032;-75
2022/11/24 12:56:05;;;;;;;11.38;4.13;;;12.20;99.90;;;;;;5073281;28;20035;-75